sensor_id;sensor_type;location;lat;lon;timestamp;P1;durP1;ratioP1;P2;durP2;ratioP2
45402;SDS011;47427;51.976;5.326;2022-11-28T00:00:55;15.45;;;10.85;;
45402;SDS011;47427;51.976;5.326;2022-11-28T00:04:18;14.27;;;10.10;;
45402;SDS011;47427;51.976;5.326;2022-11-28T00:07:41;13.88;;;10.10;;
45402;SDS011;47427;51.976;5.326;2022-11-28T00:11:05;19.45;;;9.40;;
45402;SDS011;47427;51.976;5.326;2022-11-28T00:14:30;12.55;;;9.13;;
45402;SDS011;47427;51.976;5.326;2022-11-28T00:17:54;12.30;;;9.65;;
45402;SDS011;47427;51.976;5.326;2022-11-28T00:21:17;12.55;;;9.30;;
45402;SDS011;47427;51.976;5.326;2022-11-28T00:24:40;13.65;;;8.93;;
45402;SDS011;47427;51.976;5.326;2022-11-28T00:28:03;15.00;;;10.30;;
45402;SDS011;47427;51.976;5.326;2022-11-28T00:31:27;15.30;;;8.82;;
45402;SDS011;47427;51.976;5.326;2022-11-28T00:34:52;16.20;;;10.50;;
45402;SDS011;47427;51.976;5.326;2022-11-28T00:38:15;12.98;;;9.88;;
45402;SDS011;47427;51.976;5.326;2022-11-28T00:41:38;12.05;;;9.50;;
45402;SDS011;47427;51.976;5.326;2022-11-28T00:45:01;16.00;;;9.40;;
45402;SDS011;47427;51.976;5.326;2022-11-28T00:48:24;15.70;;;9.80;;
45402;SDS011;47427;51.976;5.326;2022-11-28T00:51:47;14.68;;;10.07;;
45402;SDS011;47427;51.976;5.326;2022-11-28T00:55:10;18.38;;;10.23;;
45402;SDS011;47427;51.976;5.326;2022-11-28T00:58:34;17.38;;;11.32;;
45402;SDS011;47427;51.976;5.326;2022-11-28T01:01:58;19.92;;;11.73;;
45402;SDS011;47427;51.976;5.326;2022-11-28T01:05:20;15.55;;;11.10;;
45402;SDS011;47427;51.976;5.326;2022-11-28T01:08:43;31.08;;;13.57;;
45402;SDS011;47427;51.976;5.326;2022-11-28T01:12:06;20.20;;;11.05;;
45402;SDS011;47427;51.976;5.326;2022-11-28T01:15:28;17.92;;;12.20;;
45402;SDS011;47427;51.976;5.326;2022-11-28T01:18:51;17.10;;;11.27;;
45402;SDS011;47427;51.976;5.326;2022-11-28T01:22:14;21.40;;;12.50;;
45402;SDS011;47427;51.976;5.326;2022-11-28T01:25:37;18.45;;;11.80;;
45402;SDS011;47427;51.976;5.326;2022-11-28T01:28:59;21.27;;;12.90;;
45402;SDS011;47427;51.976;5.326;2022-11-28T01:32:22;18.30;;;11.65;;
45402;SDS011;47427;51.976;5.326;2022-11-28T01:35:54;23.40;;;12.75;;
45402;SDS011;47427;51.976;5.326;2022-11-28T01:39:38;23.13;;;13.13;;
45402;SDS011;47427;51.976;5.326;2022-11-28T01:43:01;16.02;;;10.93;;
45402;SDS011;47427;51.976;5.326;2022-11-28T01:46:24;20.00;;;13.90;;
45402;SDS011;47427;51.976;5.326;2022-11-28T01:49:46;17.17;;;12.38;;
45402;SDS011;47427;51.976;5.326;2022-11-28T01:53:10;21.77;;;13.68;;
45402;SDS011;47427;51.976;5.326;2022-11-28T01:56:40;17.55;;;11.32;;
45402;SDS011;47427;51.976;5.326;2022-11-28T02:00:09;22.90;;;13.20;;
45402;SDS011;47427;51.976;5.326;2022-11-28T02:03:42;24.40;;;11.68;;
45402;SDS011;47427;51.976;5.326;2022-11-28T02:07:08;19.10;;;11.13;;
45402;SDS011;47427;51.976;5.326;2022-11-28T02:10:46;17.65;;;10.10;;
45402;SDS011;47427;51.976;5.326;2022-11-28T02:22:10;15.50;;;9.77;;
45402;SDS011;47427;51.976;5.326;2022-11-28T02:29:46;13.85;;;9.25;;
45402;SDS011;47427;51.976;5.326;2022-11-28T02:37:16;14.77;;;8.45;;
45402;SDS011;47427;51.976;5.326;2022-11-28T02:44:59;13.02;;;8.77;;
45402;SDS011;47427;51.976;5.326;2022-11-28T02:52:31;11.68;;;7.53;;
45402;SDS011;47427;51.976;5.326;2022-11-28T02:56:00;14.60;;;8.07;;
45402;SDS011;47427;51.976;5.326;2022-11-28T02:59:32;12.50;;;7.47;;
45402;SDS011;47427;51.976;5.326;2022-11-28T03:07:15;12.27;;;7.40;;
45402;SDS011;47427;51.976;5.326;2022-11-28T03:11:07;12.50;;;8.70;;
45402;SDS011;47427;51.976;5.326;2022-11-28T03:15:05;14.13;;;8.90;;
45402;SDS011;47427;51.976;5.326;2022-11-28T03:18:31;11.38;;;8.57;;
45402;SDS011;47427;51.976;5.326;2022-11-28T03:22:13;12.07;;;8.45;;
45402;SDS011;47427;51.976;5.326;2022-11-28T03:25:55;17.15;;;8.93;;
45402;SDS011;47427;51.976;5.326;2022-11-28T03:29:48;14.55;;;9.50;;
45402;SDS011;47427;51.976;5.326;2022-11-28T03:33:23;13.50;;;8.88;;
45402;SDS011;47427;51.976;5.326;2022-11-28T03:36:58;18.15;;;10.77;;
45402;SDS011;47427;51.976;5.326;2022-11-28T03:40:46;13.07;;;9.98;;
45402;SDS011;47427;51.976;5.326;2022-11-28T03:44:20;16.88;;;8.90;;
45402;SDS011;47427;51.976;5.326;2022-11-28T03:47:54;9.57;;;8.07;;
45402;SDS011;47427;51.976;5.326;2022-11-28T03:51:21;11.82;;;8.38;;
45402;SDS011;47427;51.976;5.326;2022-11-28T03:55:03;16.73;;;9.35;;
45402;SDS011;47427;51.976;5.326;2022-11-28T03:58:35;13.40;;;9.43;;
45402;SDS011;47427;51.976;5.326;2022-11-28T04:02:33;14.75;;;9.88;;
45402;SDS011;47427;51.976;5.326;2022-11-28T04:06:22;16.08;;;9.73;;
45402;SDS011;47427;51.976;5.326;2022-11-28T04:10:03;15.30;;;10.43;;
45402;SDS011;47427;51.976;5.326;2022-11-28T04:17:31;16.85;;;9.95;;
45402;SDS011;47427;51.976;5.326;2022-11-28T04:21:07;12.95;;;10.10;;
45402;SDS011;47427;51.976;5.326;2022-11-28T04:24:49;16.25;;;10.63;;
45402;SDS011;47427;51.976;5.326;2022-11-28T04:28:18;12.75;;;9.20;;
45402;SDS011;47427;51.976;5.326;2022-11-28T04:31:44;20.70;;;10.63;;
45402;SDS011;47427;51.976;5.326;2022-11-28T04:35:10;15.93;;;10.07;;
45402;SDS011;47427;51.976;5.326;2022-11-28T04:38:44;14.88;;;11.27;;
45402;SDS011;47427;51.976;5.326;2022-11-28T04:42:38;14.05;;;10.10;;
45402;SDS011;47427;51.976;5.326;2022-11-28T04:46:43;10.65;;;9.55;;
45402;SDS011;47427;51.976;5.326;2022-11-28T04:49:51;14.27;;;10.25;;
45402;SDS011;47427;51.976;5.326;2022-11-28T05:00:56;14.20;;;11.23;;
45402;SDS011;47427;51.976;5.326;2022-11-28T05:04:21;12.73;;;9.80;;
45402;SDS011;47427;51.976;5.326;2022-11-28T05:07:43;15.52;;;9.40;;
45402;SDS011;47427;51.976;5.326;2022-11-28T05:11:04;14.20;;;9.65;;
45402;SDS011;47427;51.976;5.326;2022-11-28T05:14:26;13.00;;;10.55;;
45402;SDS011;47427;51.976;5.326;2022-11-28T05:17:47;12.45;;;9.32;;
45402;SDS011;47427;51.976;5.326;2022-11-28T05:21:09;12.80;;;10.18;;
45402;SDS011;47427;51.976;5.326;2022-11-28T05:24:32;13.73;;;9.88;;
45402;SDS011;47427;51.976;5.326;2022-11-28T05:27:53;15.80;;;11.00;;
45402;SDS011;47427;51.976;5.326;2022-11-28T05:31:15;17.90;;;10.48;;
45402;SDS011;47427;51.976;5.326;2022-11-28T05:34:39;11.23;;;10.00;;
45402;SDS011;47427;51.976;5.326;2022-11-28T05:38:01;13.45;;;9.98;;
45402;SDS011;47427;51.976;5.326;2022-11-28T05:41:23;12.48;;;10.18;;
45402;SDS011;47427;51.976;5.326;2022-11-28T05:44:50;10.52;;;9.45;;
45402;SDS011;47427;51.976;5.326;2022-11-28T05:48:12;13.40;;;10.70;;
45402;SDS011;47427;51.976;5.326;2022-11-28T05:51:33;13.93;;;11.30;;
45402;SDS011;47427;51.976;5.326;2022-11-28T05:54:55;15.55;;;10.70;;
45402;SDS011;47427;51.976;5.326;2022-11-28T05:58:17;13.43;;;11.63;;
45402;SDS011;47427;51.976;5.326;2022-11-28T06:01:38;12.98;;;11.30;;
45402;SDS011;47427;51.976;5.326;2022-11-28T06:05:00;12.73;;;10.85;;
45402;SDS011;47427;51.976;5.326;2022-11-28T06:08:21;15.20;;;11.35;;
45402;SDS011;47427;51.976;5.326;2022-11-28T06:11:43;12.95;;;10.68;;
45402;SDS011;47427;51.976;5.326;2022-11-28T06:15:04;12.50;;;11.20;;
45402;SDS011;47427;51.976;5.326;2022-11-28T06:18:27;15.98;;;12.25;;
45402;SDS011;47427;51.976;5.326;2022-11-28T06:21:49;15.35;;;10.75;;
45402;SDS011;47427;51.976;5.326;2022-11-28T06:25:11;12.00;;;10.70;;
45402;SDS011;47427;51.976;5.326;2022-11-28T06:28:33;16.30;;;12.30;;
45402;SDS011;47427;51.976;5.326;2022-11-28T06:31:54;15.07;;;12.30;;
45402;SDS011;47427;51.976;5.326;2022-11-28T06:35:16;14.40;;;10.65;;
45402;SDS011;47427;51.976;5.326;2022-11-28T06:38:38;14.25;;;11.73;;
45402;SDS011;47427;51.976;5.326;2022-11-28T06:42:00;18.70;;;13.88;;
45402;SDS011;47427;51.976;5.326;2022-11-28T06:45:21;15.93;;;12.43;;
45402;SDS011;47427;51.976;5.326;2022-11-28T06:48:43;18.17;;;12.75;;
45402;SDS011;47427;51.976;5.326;2022-11-28T06:52:06;14.50;;;12.88;;
45402;SDS011;47427;51.976;5.326;2022-11-28T06:55:28;18.40;;;13.13;;
45402;SDS011;47427;51.976;5.326;2022-11-28T06:58:54;18.63;;;13.65;;
45402;SDS011;47427;51.976;5.326;2022-11-28T07:02:18;18.58;;;14.43;;
45402;SDS011;47427;51.976;5.326;2022-11-28T07:05:39;21.45;;;14.73;;
45402;SDS011;47427;51.976;5.326;2022-11-28T07:09:01;22.77;;;15.75;;
45402;SDS011;47427;51.976;5.326;2022-11-28T07:12:22;21.17;;;14.95;;
45402;SDS011;47427;51.976;5.326;2022-11-28T07:16:05;19.42;;;14.98;;
45402;SDS011;47427;51.976;5.326;2022-11-28T07:19:27;19.42;;;16.55;;
45402;SDS011;47427;51.976;5.326;2022-11-28T07:22:49;25.65;;;17.70;;
45402;SDS011;47427;51.976;5.326;2022-11-28T07:26:11;23.48;;;17.08;;
45402;SDS011;47427;51.976;5.326;2022-11-28T07:29:34;27.00;;;17.40;;
45402;SDS011;47427;51.976;5.326;2022-11-28T07:32:56;25.75;;;16.95;;
45402;SDS011;47427;51.976;5.326;2022-11-28T07:36:22;23.67;;;17.60;;
45402;SDS011;47427;51.976;5.326;2022-11-28T07:39:46;27.20;;;17.60;;
45402;SDS011;47427;51.976;5.326;2022-11-28T07:43:07;33.35;;;20.63;;
45402;SDS011;47427;51.976;5.326;2022-11-28T07:46:30;27.95;;;19.60;;
45402;SDS011;47427;51.976;5.326;2022-11-28T07:49:55;32.85;;;20.67;;
45402;SDS011;47427;51.976;5.326;2022-11-28T07:53:18;31.38;;;20.85;;
45402;SDS011;47427;51.976;5.326;2022-11-28T07:56:41;26.58;;;19.15;;
45402;SDS011;47427;51.976;5.326;2022-11-28T08:00:04;40.03;;;23.33;;
45402;SDS011;47427;51.976;5.326;2022-11-28T08:03:46;38.30;;;23.48;;
45402;SDS011;47427;51.976;5.326;2022-11-28T08:07:11;51.65;;;26.13;;
45402;SDS011;47427;51.976;5.326;2022-11-28T08:10:34;43.60;;;23.45;;
45402;SDS011;47427;51.976;5.326;2022-11-28T08:13:57;51.22;;;28.08;;
45402;SDS011;47427;51.976;5.326;2022-11-28T08:17:20;52.35;;;29.33;;
45402;SDS011;47427;51.976;5.326;2022-11-28T08:20:44;42.28;;;25.77;;
45402;SDS011;47427;51.976;5.326;2022-11-28T08:24:07;37.33;;;25.40;;
45402;SDS011;47427;51.976;5.326;2022-11-28T08:27:31;37.90;;;24.60;;
45402;SDS011;47427;51.976;5.326;2022-11-28T08:30:54;55.03;;;29.20;;
45402;SDS011;47427;51.976;5.326;2022-11-28T08:34:17;55.13;;;28.80;;
45402;SDS011;47427;51.976;5.326;2022-11-28T08:37:39;49.65;;;28.73;;
45402;SDS011;47427;51.976;5.326;2022-11-28T08:41:09;68.88;;;32.53;;
45402;SDS011;47427;51.976;5.326;2022-11-28T08:44:57;52.92;;;30.13;;
45402;SDS011;47427;51.976;5.326;2022-11-28T08:48:20;62.60;;;33.95;;
45402;SDS011;47427;51.976;5.326;2022-11-28T08:51:42;61.17;;;32.85;;
45402;SDS011;47427;51.976;5.326;2022-11-28T08:55:05;66.50;;;33.03;;
45402;SDS011;47427;51.976;5.326;2022-11-28T08:58:28;58.13;;;32.20;;
45402;SDS011;47427;51.976;5.326;2022-11-28T09:01:51;100.82;;;39.40;;
45402;SDS011;47427;51.976;5.326;2022-11-28T09:05:15;88.38;;;36.97;;
45402;SDS011;47427;51.976;5.326;2022-11-28T09:08:38;70.65;;;34.08;;
45402;SDS011;47427;51.976;5.326;2022-11-28T09:12:00;59.85;;;33.47;;
45402;SDS011;47427;51.976;5.326;2022-11-28T09:15:23;84.57;;;37.25;;
45402;SDS011;47427;51.976;5.326;2022-11-28T09:18:46;56.33;;;32.17;;
45402;SDS011;47427;51.976;5.326;2022-11-28T09:22:09;83.68;;;36.90;;
45402;SDS011;47427;51.976;5.326;2022-11-28T09:25:35;65.47;;;34.83;;
45402;SDS011;47427;51.976;5.326;2022-11-28T09:29:01;90.50;;;39.45;;
45402;SDS011;47427;51.976;5.326;2022-11-28T09:32:23;83.57;;;36.83;;
45402;SDS011;47427;51.976;5.326;2022-11-28T09:35:46;86.55;;;38.60;;
45402;SDS011;47427;51.976;5.326;2022-11-28T09:39:09;75.18;;;38.00;;
45402;SDS011;47427;51.976;5.326;2022-11-28T09:42:39;100.35;;;41.38;;
45402;SDS011;47427;51.976;5.326;2022-11-28T09:46:06;85.95;;;38.05;;
45402;SDS011;47427;51.976;5.326;2022-11-28T09:53:37;75.93;;;36.70;;
45402;SDS011;47427;51.976;5.326;2022-11-28T09:57:15;106.10;;;42.30;;
45402;SDS011;47427;51.976;5.326;2022-11-28T10:00:53;84.18;;;39.53;;
45402;SDS011;47427;51.976;5.326;2022-11-28T10:04:47;106.55;;;43.92;;
45402;SDS011;47427;51.976;5.326;2022-11-28T10:12:34;89.78;;;41.92;;
45402;SDS011;47427;51.976;5.326;2022-11-28T10:20:23;96.07;;;43.20;;
45402;SDS011;47427;51.976;5.326;2022-11-28T10:23:55;94.30;;;42.72;;
45402;SDS011;47427;51.976;5.326;2022-11-28T10:27:27;76.20;;;39.20;;
45402;SDS011;47427;51.976;5.326;2022-11-28T10:31:08;87.00;;;40.92;;
45402;SDS011;47427;51.976;5.326;2022-11-28T10:38:39;71.15;;;36.45;;
45402;SDS011;47427;51.976;5.326;2022-11-28T10:42:05;68.57;;;36.55;;
45402;SDS011;47427;51.976;5.326;2022-11-28T11:00:40;36.85;;;26.48;;
45402;SDS011;47427;51.976;5.326;2022-11-28T11:04:05;34.20;;;23.15;;
45402;SDS011;47427;51.976;5.326;2022-11-28T11:07:48;36.70;;;23.33;;
45402;SDS011;47427;51.976;5.326;2022-11-28T11:11:45;33.53;;;21.65;;
45402;SDS011;47427;51.976;5.326;2022-11-28T11:18:50;34.72;;;23.52;;
45402;SDS011;47427;51.976;5.326;2022-11-28T11:22:21;33.33;;;24.00;;
45402;SDS011;47427;51.976;5.326;2022-11-28T11:25:52;39.47;;;24.92;;
45402;SDS011;47427;51.976;5.326;2022-11-28T11:32:48;36.72;;;22.20;;
45402;SDS011;47427;51.976;5.326;2022-11-28T11:36:30;37.97;;;24.50;;
45402;SDS011;47427;51.976;5.326;2022-11-28T11:39:55;39.47;;;25.27;;
45402;SDS011;47427;51.976;5.326;2022-11-28T11:46:50;47.00;;;30.42;;
45402;SDS011;47427;51.976;5.326;2022-11-28T11:50:17;46.47;;;29.77;;
45402;SDS011;47427;51.976;5.326;2022-11-28T11:53:41;53.53;;;30.48;;
45402;SDS011;47427;51.976;5.326;2022-11-28T11:57:03;54.70;;;33.38;;
45402;SDS011;47427;51.976;5.326;2022-11-28T12:00:35;51.83;;;32.30;;
45402;SDS011;47427;51.976;5.326;2022-11-28T12:07:27;55.78;;;33.22;;
45402;SDS011;47427;51.976;5.326;2022-11-28T12:11:04;60.25;;;35.25;;
45402;SDS011;47427;51.976;5.326;2022-11-28T12:14:35;57.58;;;34.92;;
45402;SDS011;47427;51.976;5.326;2022-11-28T12:33:28;60.25;;;35.35;;
45402;SDS011;47427;51.976;5.326;2022-11-28T12:45:32;69.28;;;37.75;;
45402;SDS011;47427;51.976;5.326;2022-11-28T12:49:18;72.40;;;39.90;;
45402;SDS011;47427;51.976;5.326;2022-11-28T12:53:23;69.63;;;37.75;;
45402;SDS011;47427;51.976;5.326;2022-11-28T12:57:39;84.27;;;43.23;;
45402;SDS011;47427;51.976;5.326;2022-11-28T13:13:03;80.82;;;42.83;;
45402;SDS011;47427;51.976;5.326;2022-11-28T13:24:01;101.18;;;49.30;;
45402;SDS011;47427;51.976;5.326;2022-11-28T13:34:57;109.88;;;53.17;;
45402;SDS011;47427;51.976;5.326;2022-11-28T13:38:21;80.75;;;45.22;;
45402;SDS011;47427;51.976;5.326;2022-11-28T13:41:53;85.35;;;45.22;;
45402;SDS011;47427;51.976;5.326;2022-11-28T13:45:36;90.50;;;44.90;;
45402;SDS011;47427;51.976;5.326;2022-11-28T13:49:16;83.75;;;44.38;;
45402;SDS011;47427;51.976;5.326;2022-11-28T13:52:47;74.35;;;42.03;;
45402;SDS011;47427;51.976;5.326;2022-11-28T13:56:27;78.22;;;42.90;;
45402;SDS011;47427;51.976;5.326;2022-11-28T14:00:22;70.22;;;39.33;;
45402;SDS011;47427;51.976;5.326;2022-11-28T14:03:47;81.50;;;41.65;;
45402;SDS011;47427;51.976;5.326;2022-11-28T14:07:23;74.35;;;40.08;;
45402;SDS011;47427;51.976;5.326;2022-11-28T14:18:54;72.07;;;39.08;;
45402;SDS011;47427;51.976;5.326;2022-11-28T14:27:01;71.78;;;39.45;;
45402;SDS011;47427;51.976;5.326;2022-11-28T14:30:35;69.35;;;40.05;;
45402;SDS011;47427;51.976;5.326;2022-11-28T14:34:02;73.82;;;37.00;;
45402;SDS011;47427;51.976;5.326;2022-11-28T14:37:53;79.13;;;39.90;;
45402;SDS011;47427;51.976;5.326;2022-11-28T14:41:17;66.20;;;38.50;;
45402;SDS011;47427;51.976;5.326;2022-11-28T14:44:59;64.90;;;37.35;;
45402;SDS011;47427;51.976;5.326;2022-11-28T14:52:21;69.72;;;39.88;;
45402;SDS011;47427;51.976;5.326;2022-11-28T14:55:44;61.05;;;37.13;;
45402;SDS011;47427;51.976;5.326;2022-11-28T14:59:07;74.22;;;41.53;;
45402;SDS011;47427;51.976;5.326;2022-11-28T15:02:49;69.57;;;38.30;;
45402;SDS011;47427;51.976;5.326;2022-11-28T15:06:43;76.35;;;38.50;;
45402;SDS011;47427;51.976;5.326;2022-11-28T15:10:14;76.40;;;39.90;;
45402;SDS011;47427;51.976;5.326;2022-11-28T15:14:34;64.50;;;33.70;;
45402;SDS011;47427;51.976;5.326;2022-11-28T15:17:56;70.15;;;37.22;;
45402;SDS011;47427;51.976;5.326;2022-11-28T15:21:22;66.55;;;35.42;;
45402;SDS011;47427;51.976;5.326;2022-11-28T15:24:49;68.40;;;36.08;;
45402;SDS011;47427;51.976;5.326;2022-11-28T15:28:13;78.90;;;38.28;;
45402;SDS011;47427;51.976;5.326;2022-11-28T15:32:02;63.13;;;35.33;;
45402;SDS011;47427;51.976;5.326;2022-11-28T15:35:24;60.10;;;34.15;;
45402;SDS011;47427;51.976;5.326;2022-11-28T15:38:47;57.67;;;33.38;;
45402;SDS011;47427;51.976;5.326;2022-11-28T15:42:23;58.58;;;35.88;;
45402;SDS011;47427;51.976;5.326;2022-11-28T15:45:56;76.18;;;38.58;;
45402;SDS011;47427;51.976;5.326;2022-11-28T15:49:31;64.03;;;35.05;;
45402;SDS011;47427;51.976;5.326;2022-11-28T15:56:34;64.57;;;36.20;;
45402;SDS011;47427;51.976;5.326;2022-11-28T15:59:57;68.70;;;39.40;;
45402;SDS011;47427;51.976;5.326;2022-11-28T16:03:22;75.18;;;38.92;;
45402;SDS011;47427;51.976;5.326;2022-11-28T16:06:51;70.60;;;37.22;;
45402;SDS011;47427;51.976;5.326;2022-11-28T16:10:19;72.28;;;37.25;;
45402;SDS011;47427;51.976;5.326;2022-11-28T16:13:43;71.03;;;39.10;;
45402;SDS011;47427;51.976;5.326;2022-11-28T16:17:08;79.88;;;37.05;;
45402;SDS011;47427;51.976;5.326;2022-11-28T16:20:39;66.07;;;37.65;;
45402;SDS011;47427;51.976;5.326;2022-11-28T16:24:00;66.53;;;36.75;;
45402;SDS011;47427;51.976;5.326;2022-11-28T16:30:56;75.45;;;39.05;;
45402;SDS011;47427;51.976;5.326;2022-11-28T16:34:26;65.95;;;38.58;;
45402;SDS011;47427;51.976;5.326;2022-11-28T16:38:15;74.47;;;39.58;;
45402;SDS011;47427;51.976;5.326;2022-11-28T16:41:51;73.20;;;39.88;;
45402;SDS011;47427;51.976;5.326;2022-11-28T16:45:26;91.72;;;42.80;;
45402;SDS011;47427;51.976;5.326;2022-11-28T16:48:53;70.43;;;39.53;;
45402;SDS011;47427;51.976;5.326;2022-11-28T16:55:42;78.40;;;39.13;;
45402;SDS011;47427;51.976;5.326;2022-11-28T17:02:29;87.80;;;42.33;;
45402;SDS011;47427;51.976;5.326;2022-11-28T17:05:50;79.07;;;42.53;;
45402;SDS011;47427;51.976;5.326;2022-11-28T17:09:12;83.50;;;41.13;;
45402;SDS011;47427;51.976;5.326;2022-11-28T17:12:34;88.10;;;44.70;;
45402;SDS011;47427;51.976;5.326;2022-11-28T17:15:59;81.57;;;41.65;;
45402;SDS011;47427;51.976;5.326;2022-11-28T17:19:20;82.78;;;41.40;;
45402;SDS011;47427;51.976;5.326;2022-11-28T17:22:43;83.28;;;42.72;;
45402;SDS011;47427;51.976;5.326;2022-11-28T17:26:27;83.93;;;40.78;;
45402;SDS011;47427;51.976;5.326;2022-11-28T17:29:49;86.35;;;44.22;;
45402;SDS011;47427;51.976;5.326;2022-11-28T17:33:14;94.88;;;50.17;;
45402;SDS011;47427;51.976;5.326;2022-11-28T17:36:36;110.30;;;50.47;;
45402;SDS011;47427;51.976;5.326;2022-11-28T17:39:58;101.65;;;54.20;;
45402;SDS011;47427;51.976;5.326;2022-11-28T17:43:38;94.22;;;49.85;;
45402;SDS011;47427;51.976;5.326;2022-11-28T17:47:01;79.38;;;44.50;;
45402;SDS011;47427;51.976;5.326;2022-11-28T17:50:23;68.72;;;38.88;;
45402;SDS011;47427;51.976;5.326;2022-11-28T17:53:44;72.53;;;42.22;;
45402;SDS011;47427;51.976;5.326;2022-11-28T17:57:07;69.72;;;40.05;;
45402;SDS011;47427;51.976;5.326;2022-11-28T18:00:29;72.75;;;38.40;;
45402;SDS011;47427;51.976;5.326;2022-11-28T18:03:52;68.07;;;38.58;;
45402;SDS011;47427;51.976;5.326;2022-11-28T18:07:14;88.47;;;42.78;;
45402;SDS011;47427;51.976;5.326;2022-11-28T18:10:36;68.50;;;38.08;;
45402;SDS011;47427;51.976;5.326;2022-11-28T18:13:58;65.15;;;37.30;;
45402;SDS011;47427;51.976;5.326;2022-11-28T18:17:21;67.97;;;38.63;;
45402;SDS011;47427;51.976;5.326;2022-11-28T18:20:42;63.38;;;35.25;;
45402;SDS011;47427;51.976;5.326;2022-11-28T18:24:05;81.78;;;40.92;;
45402;SDS011;47427;51.976;5.326;2022-11-28T18:27:28;81.28;;;40.25;;
45402;SDS011;47427;51.976;5.326;2022-11-28T18:31:13;81.85;;;40.75;;
45402;SDS011;47427;51.976;5.326;2022-11-28T18:34:39;91.22;;;43.30;;
45402;SDS011;47427;51.976;5.326;2022-11-28T18:38:20;84.50;;;37.25;;
45402;SDS011;47427;51.976;5.326;2022-11-28T18:41:42;72.82;;;38.38;;
45402;SDS011;47427;51.976;5.326;2022-11-28T18:45:06;72.05;;;37.63;;
45402;SDS011;47427;51.976;5.326;2022-11-28T18:48:32;83.70;;;44.35;;
45402;SDS011;47427;51.976;5.326;2022-11-28T18:51:57;83.68;;;42.33;;
45402;SDS011;47427;51.976;5.326;2022-11-28T18:55:19;89.97;;;42.97;;
45402;SDS011;47427;51.976;5.326;2022-11-28T18:58:42;84.38;;;41.25;;
45402;SDS011;47427;51.976;5.326;2022-11-28T19:02:08;80.25;;;43.47;;
45402;SDS011;47427;51.976;5.326;2022-11-28T19:05:33;91.43;;;43.38;;
45402;SDS011;47427;51.976;5.326;2022-11-28T19:09:04;85.63;;;44.03;;
45402;SDS011;47427;51.976;5.326;2022-11-28T19:12:29;92.35;;;45.42;;
45402;SDS011;47427;51.976;5.326;2022-11-28T19:15:51;93.13;;;45.90;;
45402;SDS011;47427;51.976;5.326;2022-11-28T19:19:13;91.05;;;46.28;;
45402;SDS011;47427;51.976;5.326;2022-11-28T19:22:35;85.90;;;46.10;;
45402;SDS011;47427;51.976;5.326;2022-11-28T19:25:59;94.97;;;49.53;;
45402;SDS011;47427;51.976;5.326;2022-11-28T19:29:26;89.38;;;46.30;;
45402;SDS011;47427;51.976;5.326;2022-11-28T19:32:48;114.90;;;51.97;;
45402;SDS011;47427;51.976;5.326;2022-11-28T19:36:10;92.07;;;42.85;;
45402;SDS011;47427;51.976;5.326;2022-11-28T19:39:34;77.10;;;41.45;;
45402;SDS011;47427;51.976;5.326;2022-11-28T19:42:55;81.57;;;41.08;;
45402;SDS011;47427;51.976;5.326;2022-11-28T19:46:17;76.25;;;36.88;;
45402;SDS011;47427;51.976;5.326;2022-11-28T19:49:40;67.13;;;37.85;;
45402;SDS011;47427;51.976;5.326;2022-11-28T19:53:01;72.00;;;34.67;;
45402;SDS011;47427;51.976;5.326;2022-11-28T19:56:23;88.20;;;39.28;;
45402;SDS011;47427;51.976;5.326;2022-11-28T19:59:46;83.28;;;39.55;;
45402;SDS011;47427;51.976;5.326;2022-11-28T20:03:07;75.60;;;37.92;;
45402;SDS011;47427;51.976;5.326;2022-11-28T20:06:30;78.65;;;42.72;;
45402;SDS011;47427;51.976;5.326;2022-11-28T20:10:12;81.90;;;42.58;;
45402;SDS011;47427;51.976;5.326;2022-11-28T20:13:34;85.07;;;42.30;;
45402;SDS011;47427;51.976;5.326;2022-11-28T20:16:59;97.13;;;42.50;;
45402;SDS011;47427;51.976;5.326;2022-11-28T20:20:21;78.13;;;39.78;;
45402;SDS011;47427;51.976;5.326;2022-11-28T20:23:43;94.70;;;46.92;;
45402;SDS011;47427;51.976;5.326;2022-11-28T20:27:06;102.30;;;49.92;;
45402;SDS011;47427;51.976;5.326;2022-11-28T20:30:28;100.55;;;51.10;;
45402;SDS011;47427;51.976;5.326;2022-11-28T20:33:50;95.68;;;47.55;;
45402;SDS011;47427;51.976;5.326;2022-11-28T20:37:13;109.35;;;48.97;;
45402;SDS011;47427;51.976;5.326;2022-11-28T20:40:35;94.38;;;46.28;;
45402;SDS011;47427;51.976;5.326;2022-11-28T20:43:59;100.55;;;48.20;;
45402;SDS011;47427;51.976;5.326;2022-11-28T20:47:21;97.07;;;46.17;;
45402;SDS011;47427;51.976;5.326;2022-11-28T20:50:43;92.10;;;44.65;;
45402;SDS011;47427;51.976;5.326;2022-11-28T20:54:05;91.85;;;47.20;;
45402;SDS011;47427;51.976;5.326;2022-11-28T20:57:27;98.22;;;47.85;;
45402;SDS011;47427;51.976;5.326;2022-11-28T21:00:48;97.32;;;46.72;;
45402;SDS011;47427;51.976;5.326;2022-11-28T21:04:11;98.90;;;44.85;;
45402;SDS011;47427;51.976;5.326;2022-11-28T21:07:35;88.45;;;45.58;;
45402;SDS011;47427;51.976;5.326;2022-11-28T21:10:56;88.30;;;46.50;;
45402;SDS011;47427;51.976;5.326;2022-11-28T21:14:18;95.93;;;44.97;;
45402;SDS011;47427;51.976;5.326;2022-11-28T21:17:40;100.50;;;45.17;;
45402;SDS011;47427;51.976;5.326;2022-11-28T21:21:27;88.47;;;41.08;;
45402;SDS011;47427;51.976;5.326;2022-11-28T21:24:51;77.43;;;39.97;;
45402;SDS011;47427;51.976;5.326;2022-11-28T21:28:13;93.35;;;43.40;;
45402;SDS011;47427;51.976;5.326;2022-11-28T21:31:36;85.78;;;40.75;;
45402;SDS011;47427;51.976;5.326;2022-11-28T21:35:20;71.70;;;38.95;;
45402;SDS011;47427;51.976;5.326;2022-11-28T21:38:41;100.25;;;45.95;;
45402;SDS011;47427;51.976;5.326;2022-11-28T21:42:03;105.30;;;47.55;;
45402;SDS011;47427;51.976;5.326;2022-11-28T21:45:25;96.43;;;43.60;;
45402;SDS011;47427;51.976;5.326;2022-11-28T21:48:47;108.80;;;48.63;;
45402;SDS011;47427;51.976;5.326;2022-11-28T21:52:08;134.10;;;57.20;;
45402;SDS011;47427;51.976;5.326;2022-11-28T21:55:31;100.35;;;47.42;;
45402;SDS011;47427;51.976;5.326;2022-11-28T21:58:53;95.13;;;45.13;;
45402;SDS011;47427;51.976;5.326;2022-11-28T22:02:16;100.50;;;48.17;;
45402;SDS011;47427;51.976;5.326;2022-11-28T22:05:38;84.60;;;42.72;;
45402;SDS011;47427;51.976;5.326;2022-11-28T22:09:00;106.18;;;46.95;;
45402;SDS011;47427;51.976;5.326;2022-11-28T22:12:24;138.23;;;54.72;;
45402;SDS011;47427;51.976;5.326;2022-11-28T22:15:45;108.00;;;47.03;;
45402;SDS011;47427;51.976;5.326;2022-11-28T22:19:07;109.53;;;49.95;;
45402;SDS011;47427;51.976;5.326;2022-11-28T22:22:29;99.50;;;47.58;;
45402;SDS011;47427;51.976;5.326;2022-11-28T22:25:52;116.68;;;49.47;;
45402;SDS011;47427;51.976;5.326;2022-11-28T22:29:14;112.35;;;49.33;;
45402;SDS011;47427;51.976;5.326;2022-11-28T22:32:36;204.15;;;57.95;;
45402;SDS011;47427;51.976;5.326;2022-11-28T22:36:02;84.70;;;43.22;;
45402;SDS011;47427;51.976;5.326;2022-11-28T22:39:37;151.45;;;50.10;;
45402;SDS011;47427;51.976;5.326;2022-11-28T22:42:58;105.22;;;47.05;;
45402;SDS011;47427;51.976;5.326;2022-11-28T22:46:20;105.55;;;45.60;;
45402;SDS011;47427;51.976;5.326;2022-11-28T22:49:42;107.82;;;43.92;;
45402;SDS011;47427;51.976;5.326;2022-11-28T22:53:04;136.30;;;49.47;;
45402;SDS011;47427;51.976;5.326;2022-11-28T22:56:25;402.65;;;76.55;;
45402;SDS011;47427;51.976;5.326;2022-11-28T22:59:48;104.88;;;43.70;;